sensor_id;sensor_type;location;lat;lon;timestamp;P1;durP1;ratioP1;P2;durP2;ratioP2
20207;SDS011;10263;48.716;8.760;2024-02-15T00:00:51;2.40;;;1.70;;
20207;SDS011;10263;48.716;8.760;2024-02-15T00:03:18;2.60;;;1.63;;
20207;SDS011;10263;48.716;8.760;2024-02-15T00:05:45;4.93;;;1.60;;
20207;SDS011;10263;48.716;8.760;2024-02-15T00:08:12;2.03;;;1.47;;
20207;SDS011;10263;48.716;8.760;2024-02-15T00:10:41;3.00;;;1.43;;
20207;SDS011;10263;48.716;8.760;2024-02-15T00:13:11;2.57;;;1.43;;
20207;SDS011;10263;48.716;8.760;2024-02-15T00:15:38;2.10;;;1.67;;
20207;SDS011;10263;48.716;8.760;2024-02-15T00:18:05;2.63;;;1.77;;
20207;SDS011;10263;48.716;8.760;2024-02-15T00:20:33;3.27;;;1.40;;
20207;SDS011;10263;48.716;8.760;2024-02-15T00:22:59;2.90;;;1.37;;
20207;SDS011;10263;48.716;8.760;2024-02-15T00:25:26;3.03;;;1.43;;
20207;SDS011;10263;48.716;8.760;2024-02-15T00:27:54;1.80;;;1.63;;
20207;SDS011;10263;48.716;8.760;2024-02-15T00:30:21;5.17;;;1.70;;
20207;SDS011;10263;48.716;8.760;2024-02-15T00:32:48;2.23;;;1.60;;
20207;SDS011;10263;48.716;8.760;2024-02-15T00:35:16;1.47;;;1.30;;
20207;SDS011;10263;48.716;8.760;2024-02-15T00:37:43;2.40;;;1.30;;
20207;SDS011;10263;48.716;8.760;2024-02-15T00:40:11;1.80;;;1.40;;
20207;SDS011;10263;48.716;8.760;2024-02-15T00:42:37;2.37;;;1.80;;
20207;SDS011;10263;48.716;8.760;2024-02-15T00:45:07;1.83;;;1.60;;
20207;SDS011;10263;48.716;8.760;2024-02-15T00:47:34;3.17;;;1.53;;
20207;SDS011;10263;48.716;8.760;2024-02-15T00:50:01;1.50;;;1.40;;
20207;SDS011;10263;48.716;8.760;2024-02-15T00:52:28;5.37;;;2.50;;
20207;SDS011;10263;48.716;8.760;2024-02-15T00:54:55;2.97;;;1.50;;
20207;SDS011;10263;48.716;8.760;2024-02-15T00:57:23;1.47;;;1.37;;
20207;SDS011;10263;48.716;8.760;2024-02-15T00:59:49;2.67;;;1.37;;
20207;SDS011;10263;48.716;8.760;2024-02-15T01:02:18;1.77;;;1.37;;
20207;SDS011;10263;48.716;8.760;2024-02-15T01:04:45;2.77;;;1.53;;
20207;SDS011;10263;48.716;8.760;2024-02-15T01:07:12;2.20;;;1.50;;
20207;SDS011;10263;48.716;8.760;2024-02-15T01:09:39;2.60;;;1.50;;
20207;SDS011;10263;48.716;8.760;2024-02-15T01:12:06;1.43;;;1.30;;
20207;SDS011;10263;48.716;8.760;2024-02-15T01:14:33;4.27;;;1.63;;
20207;SDS011;10263;48.716;8.760;2024-02-15T01:16:59;2.50;;;1.40;;
20207;SDS011;10263;48.716;8.760;2024-02-15T01:19:27;1.93;;;1.50;;
20207;SDS011;10263;48.716;8.760;2024-02-15T01:21:54;3.80;;;1.83;;
20207;SDS011;10263;48.716;8.760;2024-02-15T01:24:23;2.10;;;1.60;;
20207;SDS011;10263;48.716;8.760;2024-02-15T01:26:50;3.40;;;1.73;;
20207;SDS011;10263;48.716;8.760;2024-02-15T01:29:18;3.60;;;1.50;;
20207;SDS011;10263;48.716;8.760;2024-02-15T01:31:45;1.63;;;1.47;;
20207;SDS011;10263;48.716;8.760;2024-02-15T01:34:12;2.20;;;1.53;;
20207;SDS011;10263;48.716;8.760;2024-02-15T01:36:40;5.37;;;1.70;;
20207;SDS011;10263;48.716;8.760;2024-02-15T01:39:07;2.50;;;1.30;;
20207;SDS011;10263;48.716;8.760;2024-02-15T01:41:34;4.07;;;1.40;;
20207;SDS011;10263;48.716;8.760;2024-02-15T01:44:00;3.20;;;1.77;;
20207;SDS011;10263;48.716;8.760;2024-02-15T01:46:27;2.10;;;1.53;;
20207;SDS011;10263;48.716;8.760;2024-02-15T01:48:56;15.50;;;3.90;;
20207;SDS011;10263;48.716;8.760;2024-02-15T01:51:24;2.33;;;2.00;;
20207;SDS011;10263;48.716;8.760;2024-02-15T01:53:53;2.00;;;1.43;;
20207;SDS011;10263;48.716;8.760;2024-02-15T01:56:21;3.50;;;2.00;;
20207;SDS011;10263;48.716;8.760;2024-02-15T01:58:49;2.90;;;1.97;;
20207;SDS011;10263;48.716;8.760;2024-02-15T02:01:16;1.50;;;1.40;;
20207;SDS011;10263;48.716;8.760;2024-02-15T02:03:43;1.73;;;1.30;;
20207;SDS011;10263;48.716;8.760;2024-02-15T02:06:10;2.13;;;1.57;;
20207;SDS011;10263;48.716;8.760;2024-02-15T02:08:39;2.37;;;1.60;;
20207;SDS011;10263;48.716;8.760;2024-02-15T02:11:07;4.50;;;2.23;;
20207;SDS011;10263;48.716;8.760;2024-02-15T02:13:35;2.57;;;2.37;;
20207;SDS011;10263;48.716;8.760;2024-02-15T02:16:02;4.37;;;2.17;;
20207;SDS011;10263;48.716;8.760;2024-02-15T02:18:29;4.03;;;2.13;;
20207;SDS011;10263;48.716;8.760;2024-02-15T02:20:56;3.90;;;2.37;;
20207;SDS011;10263;48.716;8.760;2024-02-15T02:23:25;4.37;;;2.07;;
20207;SDS011;10263;48.716;8.760;2024-02-15T02:25:53;3.90;;;2.20;;
20207;SDS011;10263;48.716;8.760;2024-02-15T02:28:21;2.93;;;1.90;;
20207;SDS011;10263;48.716;8.760;2024-02-15T02:30:48;3.73;;;1.87;;
20207;SDS011;10263;48.716;8.760;2024-02-15T02:33:15;4.63;;;2.83;;
20207;SDS011;10263;48.716;8.760;2024-02-15T02:35:44;3.20;;;2.10;;
20207;SDS011;10263;48.716;8.760;2024-02-15T02:38:11;2.93;;;1.70;;
20207;SDS011;10263;48.716;8.760;2024-02-15T02:40:39;4.33;;;1.83;;
20207;SDS011;10263;48.716;8.760;2024-02-15T02:43:08;1.70;;;1.40;;
20207;SDS011;10263;48.716;8.760;2024-02-15T02:45:35;2.40;;;1.70;;
20207;SDS011;10263;48.716;8.760;2024-02-15T02:48:02;2.40;;;1.70;;
20207;SDS011;10263;48.716;8.760;2024-02-15T02:50:29;2.33;;;1.70;;
20207;SDS011;10263;48.716;8.760;2024-02-15T02:52:55;4.93;;;1.70;;
20207;SDS011;10263;48.716;8.760;2024-02-15T02:55:22;2.30;;;1.70;;
20207;SDS011;10263;48.716;8.760;2024-02-15T02:57:52;4.20;;;1.87;;
20207;SDS011;10263;48.716;8.760;2024-02-15T03:00:21;3.90;;;1.80;;
20207;SDS011;10263;48.716;8.760;2024-02-15T03:02:48;7.47;;;1.90;;
20207;SDS011;10263;48.716;8.760;2024-02-15T03:05:15;8.00;;;2.33;;
20207;SDS011;10263;48.716;8.760;2024-02-15T03:07:45;31.57;;;4.20;;
20207;SDS011;10263;48.716;8.760;2024-02-15T03:10:12;3.00;;;2.17;;
20207;SDS011;10263;48.716;8.760;2024-02-15T03:12:40;2.57;;;1.97;;
20207;SDS011;10263;48.716;8.760;2024-02-15T03:18:20;111.77;;;7.17;;
20207;SDS011;10263;48.716;8.760;2024-02-15T03:20:49;28.07;;;3.37;;
20207;SDS011;10263;48.716;8.760;2024-02-15T03:23:16;19.00;;;3.80;;
20207;SDS011;10263;48.716;8.760;2024-02-15T03:25:43;2.33;;;1.53;;
20207;SDS011;10263;48.716;8.760;2024-02-15T03:28:10;2.27;;;1.40;;
20207;SDS011;10263;48.716;8.760;2024-02-15T03:30:36;3.50;;;1.53;;
20207;SDS011;10263;48.716;8.760;2024-02-15T03:33:03;3.03;;;1.73;;
20207;SDS011;10263;48.716;8.760;2024-02-15T03:35:32;2.23;;;1.77;;
20207;SDS011;10263;48.716;8.760;2024-02-15T03:37:59;2.07;;;1.73;;
20207;SDS011;10263;48.716;8.760;2024-02-15T03:40:26;4.57;;;3.40;;
20207;SDS011;10263;48.716;8.760;2024-02-15T03:42:53;1.53;;;1.37;;
20207;SDS011;10263;48.716;8.760;2024-02-15T03:45:20;4.47;;;1.77;;
20207;SDS011;10263;48.716;8.760;2024-02-15T03:47:50;2.80;;;1.70;;
20207;SDS011;10263;48.716;8.760;2024-02-15T03:50:17;2.13;;;1.50;;
20207;SDS011;10263;48.716;8.760;2024-02-15T03:52:49;2.00;;;1.40;;
20207;SDS011;10263;48.716;8.760;2024-02-15T03:55:16;3.37;;;2.00;;
20207;SDS011;10263;48.716;8.760;2024-02-15T03:57:43;2.03;;;1.50;;
20207;SDS011;10263;48.716;8.760;2024-02-15T04:00:11;2.03;;;1.73;;
20207;SDS011;10263;48.716;8.760;2024-02-15T04:02:39;1.87;;;1.53;;
20207;SDS011;10263;48.716;8.760;2024-02-15T04:05:06;2.57;;;1.70;;
20207;SDS011;10263;48.716;8.760;2024-02-15T04:07:34;3.37;;;1.70;;
20207;SDS011;10263;48.716;8.760;2024-02-15T04:10:04;2.73;;;1.50;;
20207;SDS011;10263;48.716;8.760;2024-02-15T04:12:33;2.83;;;1.93;;
20207;SDS011;10263;48.716;8.760;2024-02-15T04:15:00;3.43;;;1.63;;
20207;SDS011;10263;48.716;8.760;2024-02-15T04:17:30;2.50;;;1.63;;
20207;SDS011;10263;48.716;8.760;2024-02-15T04:20:00;1.90;;;1.73;;
20207;SDS011;10263;48.716;8.760;2024-02-15T04:22:29;3.00;;;1.80;;
20207;SDS011;10263;48.716;8.760;2024-02-15T04:24:57;3.00;;;1.53;;
20207;SDS011;10263;48.716;8.760;2024-02-15T04:27:25;2.37;;;1.80;;
20207;SDS011;10263;48.716;8.760;2024-02-15T04:29:51;2.23;;;1.80;;
20207;SDS011;10263;48.716;8.760;2024-02-15T04:32:19;4.63;;;1.83;;
20207;SDS011;10263;48.716;8.760;2024-02-15T04:34:47;4.30;;;2.43;;
20207;SDS011;10263;48.716;8.760;2024-02-15T04:37:13;3.83;;;2.33;;
20207;SDS011;10263;48.716;8.760;2024-02-15T04:39:41;3.00;;;2.20;;
20207;SDS011;10263;48.716;8.760;2024-02-15T04:42:08;4.03;;;2.57;;
20207;SDS011;10263;48.716;8.760;2024-02-15T04:44:39;3.57;;;2.37;;
20207;SDS011;10263;48.716;8.760;2024-02-15T04:47:06;3.87;;;2.23;;
20207;SDS011;10263;48.716;8.760;2024-02-15T04:49:33;3.33;;;2.07;;
20207;SDS011;10263;48.716;8.760;2024-02-15T04:52:01;2.40;;;2.03;;
20207;SDS011;10263;48.716;8.760;2024-02-15T04:54:29;2.23;;;1.90;;
20207;SDS011;10263;48.716;8.760;2024-02-15T04:56:56;3.83;;;2.37;;
20207;SDS011;10263;48.716;8.760;2024-02-15T04:59:22;2.73;;;2.20;;
20207;SDS011;10263;48.716;8.760;2024-02-15T05:01:52;3.07;;;2.43;;
20207;SDS011;10263;48.716;8.760;2024-02-15T05:04:19;2.57;;;2.23;;
20207;SDS011;10263;48.716;8.760;2024-02-15T05:06:46;3.57;;;2.10;;
20207;SDS011;10263;48.716;8.760;2024-02-15T05:09:12;3.37;;;2.20;;
20207;SDS011;10263;48.716;8.760;2024-02-15T05:11:39;3.20;;;2.27;;
20207;SDS011;10263;48.716;8.760;2024-02-15T05:14:11;4.93;;;2.77;;
20207;SDS011;10263;48.716;8.760;2024-02-15T05:16:44;4.23;;;2.00;;
20207;SDS011;10263;48.716;8.760;2024-02-15T05:19:14;2.10;;;1.90;;
20207;SDS011;10263;48.716;8.760;2024-02-15T05:21:41;2.73;;;2.27;;
20207;SDS011;10263;48.716;8.760;2024-02-15T05:24:10;3.03;;;2.50;;
20207;SDS011;10263;48.716;8.760;2024-02-15T05:26:36;4.43;;;3.40;;
20207;SDS011;10263;48.716;8.760;2024-02-15T05:29:04;3.17;;;1.90;;
20207;SDS011;10263;48.716;8.760;2024-02-15T05:31:31;2.47;;;1.83;;
20207;SDS011;10263;48.716;8.760;2024-02-15T05:33:59;3.70;;;2.20;;
20207;SDS011;10263;48.716;8.760;2024-02-15T05:36:28;2.87;;;1.80;;
20207;SDS011;10263;48.716;8.760;2024-02-15T05:38:55;3.13;;;2.13;;
20207;SDS011;10263;48.716;8.760;2024-02-15T05:41:23;3.90;;;2.00;;
20207;SDS011;10263;48.716;8.760;2024-02-15T05:43:50;1.87;;;1.77;;
20207;SDS011;10263;48.716;8.760;2024-02-15T05:46:18;2.03;;;1.80;;
20207;SDS011;10263;48.716;8.760;2024-02-15T05:48:46;3.77;;;2.30;;
20207;SDS011;10263;48.716;8.760;2024-02-15T05:51:14;3.20;;;2.13;;
20207;SDS011;10263;48.716;8.760;2024-02-15T05:53:43;2.67;;;2.00;;
20207;SDS011;10263;48.716;8.760;2024-02-15T05:56:10;4.83;;;3.10;;
20207;SDS011;10263;48.716;8.760;2024-02-15T05:58:37;8.70;;;3.37;;
20207;SDS011;10263;48.716;8.760;2024-02-15T06:01:05;6.57;;;3.13;;
20207;SDS011;10263;48.716;8.760;2024-02-15T06:03:32;2.73;;;1.90;;
20207;SDS011;10263;48.716;8.760;2024-02-15T06:06:03;2.33;;;1.93;;
20207;SDS011;10263;48.716;8.760;2024-02-15T06:08:31;2.27;;;1.60;;
20207;SDS011;10263;48.716;8.760;2024-02-15T06:11:00;3.77;;;1.73;;
20207;SDS011;10263;48.716;8.760;2024-02-15T06:13:27;2.60;;;1.93;;
20207;SDS011;10263;48.716;8.760;2024-02-15T06:15:54;2.23;;;1.80;;
20207;SDS011;10263;48.716;8.760;2024-02-15T06:18:21;3.97;;;3.20;;
20207;SDS011;10263;48.716;8.760;2024-02-15T06:20:51;4.63;;;3.77;;
20207;SDS011;10263;48.716;8.760;2024-02-15T06:23:18;4.80;;;4.17;;
20207;SDS011;10263;48.716;8.760;2024-02-15T06:25:46;3.80;;;3.43;;
20207;SDS011;10263;48.716;8.760;2024-02-15T06:28:15;6.30;;;5.60;;
20207;SDS011;10263;48.716;8.760;2024-02-15T06:31:05;11.43;;;7.70;;
20207;SDS011;10263;48.716;8.760;2024-02-15T06:33:50;7.90;;;6.67;;
20207;SDS011;10263;48.716;8.760;2024-02-15T06:36:38;6.77;;;4.13;;
20207;SDS011;10263;48.716;8.760;2024-02-15T06:39:23;5.80;;;4.00;;
20207;SDS011;10263;48.716;8.760;2024-02-15T06:42:06;4.77;;;3.00;;
20207;SDS011;10263;48.716;8.760;2024-02-15T06:44:35;5.30;;;3.40;;
20207;SDS011;10263;48.716;8.760;2024-02-15T06:47:02;5.37;;;3.50;;
20207;SDS011;10263;48.716;8.760;2024-02-15T06:49:29;4.20;;;3.10;;
20207;SDS011;10263;48.716;8.760;2024-02-15T06:51:56;3.00;;;2.70;;
20207;SDS011;10263;48.716;8.760;2024-02-15T06:54:24;24.83;;;4.20;;
20207;SDS011;10263;48.716;8.760;2024-02-15T06:56:50;26.27;;;4.40;;
20207;SDS011;10263;48.716;8.760;2024-02-15T06:59:19;21.20;;;4.27;;
20207;SDS011;10263;48.716;8.760;2024-02-15T07:01:48;54.87;;;6.40;;
20207;SDS011;10263;48.716;8.760;2024-02-15T07:04:17;75.97;;;7.00;;
20207;SDS011;10263;48.716;8.760;2024-02-15T07:06:44;135.90;;;10.80;;
20207;SDS011;10263;48.716;8.760;2024-02-15T07:09:13;48.77;;;4.63;;
20207;SDS011;10263;48.716;8.760;2024-02-15T07:11:41;62.70;;;6.10;;
20207;SDS011;10263;48.716;8.760;2024-02-15T07:14:09;94.37;;;10.30;;
20207;SDS011;10263;48.716;8.760;2024-02-15T07:16:36;32.30;;;6.97;;
20207;SDS011;10263;48.716;8.760;2024-02-15T07:19:04;13.53;;;2.90;;
20207;SDS011;10263;48.716;8.760;2024-02-15T07:21:34;12.00;;;2.73;;
20207;SDS011;10263;48.716;8.760;2024-02-15T07:24:03;9.90;;;2.70;;
20207;SDS011;10263;48.716;8.760;2024-02-15T07:26:30;11.47;;;2.47;;
20207;SDS011;10263;48.716;8.760;2024-02-15T07:29:00;5.83;;;2.20;;
20207;SDS011;10263;48.716;8.760;2024-02-15T07:31:27;25.00;;;3.73;;
20207;SDS011;10263;48.716;8.760;2024-02-15T07:33:55;23.43;;;4.00;;
20207;SDS011;10263;48.716;8.760;2024-02-15T07:36:24;6.70;;;2.80;;
20207;SDS011;10263;48.716;8.760;2024-02-15T07:38:51;10.80;;;2.43;;
20207;SDS011;10263;48.716;8.760;2024-02-15T07:41:19;8.10;;;2.80;;
20207;SDS011;10263;48.716;8.760;2024-02-15T07:43:47;38.60;;;4.40;;
20207;SDS011;10263;48.716;8.760;2024-02-15T07:46:15;6.37;;;2.43;;
20207;SDS011;10263;48.716;8.760;2024-02-15T07:48:42;3.03;;;2.53;;
20207;SDS011;10263;48.716;8.760;2024-02-15T07:51:11;3.50;;;2.10;;
20207;SDS011;10263;48.716;8.760;2024-02-15T07:53:39;2.27;;;1.87;;
20207;SDS011;10263;48.716;8.760;2024-02-15T07:56:06;2.10;;;1.90;;
20207;SDS011;10263;48.716;8.760;2024-02-15T07:58:33;4.50;;;1.70;;
20207;SDS011;10263;48.716;8.760;2024-02-15T08:00:59;2.37;;;1.83;;
20207;SDS011;10263;48.716;8.760;2024-02-15T08:03:27;3.90;;;2.00;;
20207;SDS011;10263;48.716;8.760;2024-02-15T08:05:54;2.20;;;1.60;;
20207;SDS011;10263;48.716;8.760;2024-02-15T08:08:21;2.00;;;1.73;;
20207;SDS011;10263;48.716;8.760;2024-02-15T08:10:50;1.97;;;1.63;;
20207;SDS011;10263;48.716;8.760;2024-02-15T08:13:17;2.17;;;1.93;;
20207;SDS011;10263;48.716;8.760;2024-02-15T08:15:47;4.10;;;1.60;;
20207;SDS011;10263;48.716;8.760;2024-02-15T08:18:17;2.10;;;1.90;;
20207;SDS011;10263;48.716;8.760;2024-02-15T08:20:45;2.47;;;1.50;;
20207;SDS011;10263;48.716;8.760;2024-02-15T08:23:12;1.83;;;1.70;;
20207;SDS011;10263;48.716;8.760;2024-02-15T08:25:39;3.23;;;1.90;;
20207;SDS011;10263;48.716;8.760;2024-02-15T08:28:08;2.27;;;1.90;;
20207;SDS011;10263;48.716;8.760;2024-02-15T08:30:36;2.27;;;1.80;;
20207;SDS011;10263;48.716;8.760;2024-02-15T08:33:03;2.27;;;2.07;;
20207;SDS011;10263;48.716;8.760;2024-02-15T08:35:30;3.47;;;1.77;;
20207;SDS011;10263;48.716;8.760;2024-02-15T08:37:58;3.80;;;1.50;;
20207;SDS011;10263;48.716;8.760;2024-02-15T08:40:24;2.27;;;2.07;;
20207;SDS011;10263;48.716;8.760;2024-02-15T08:42:52;2.93;;;1.80;;
20207;SDS011;10263;48.716;8.760;2024-02-15T08:45:22;3.70;;;2.33;;
20207;SDS011;10263;48.716;8.760;2024-02-15T08:47:49;2.80;;;2.17;;
20207;SDS011;10263;48.716;8.760;2024-02-15T08:50:18;3.23;;;1.73;;
20207;SDS011;10263;48.716;8.760;2024-02-15T08:52:47;2.37;;;1.80;;
20207;SDS011;10263;48.716;8.760;2024-02-15T08:55:14;2.60;;;2.10;;
20207;SDS011;10263;48.716;8.760;2024-02-15T08:57:42;2.33;;;2.00;;
20207;SDS011;10263;48.716;8.760;2024-02-15T09:00:10;3.50;;;2.20;;
20207;SDS011;10263;48.716;8.760;2024-02-15T09:02:43;2.30;;;1.90;;
20207;SDS011;10263;48.716;8.760;2024-02-15T09:05:09;2.83;;;2.33;;
20207;SDS011;10263;48.716;8.760;2024-02-15T09:07:39;3.03;;;2.33;;
20207;SDS011;10263;48.716;8.760;2024-02-15T09:10:07;3.37;;;2.40;;
20207;SDS011;10263;48.716;8.760;2024-02-15T09:12:35;2.87;;;2.63;;
20207;SDS011;10263;48.716;8.760;2024-02-15T09:15:05;5.10;;;3.10;;
20207;SDS011;10263;48.716;8.760;2024-02-15T09:17:32;4.77;;;3.07;;
20207;SDS011;10263;48.716;8.760;2024-02-15T09:20:06;4.40;;;3.17;;
20207;SDS011;10263;48.716;8.760;2024-02-15T09:22:39;4.77;;;2.90;;
20207;SDS011;10263;48.716;8.760;2024-02-15T09:25:07;5.50;;;3.10;;
20207;SDS011;10263;48.716;8.760;2024-02-15T09:27:34;4.90;;;2.83;;
20207;SDS011;10263;48.716;8.760;2024-02-15T09:30:02;3.33;;;2.23;;
20207;SDS011;10263;48.716;8.760;2024-02-15T09:32:32;4.17;;;3.00;;
20207;SDS011;10263;48.716;8.760;2024-02-15T09:35:01;3.80;;;2.83;;
20207;SDS011;10263;48.716;8.760;2024-02-15T09:37:29;3.07;;;2.77;;
20207;SDS011;10263;48.716;8.760;2024-02-15T09:39:58;3.73;;;3.10;;
20207;SDS011;10263;48.716;8.760;2024-02-15T09:42:30;3.03;;;2.43;;
20207;SDS011;10263;48.716;8.760;2024-02-15T09:44:59;5.23;;;3.33;;
20207;SDS011;10263;48.716;8.760;2024-02-15T09:47:26;4.00;;;2.83;;
20207;SDS011;10263;48.716;8.760;2024-02-15T09:49:57;5.87;;;2.47;;
20207;SDS011;10263;48.716;8.760;2024-02-15T09:52:25;4.23;;;2.37;;
20207;SDS011;10263;48.716;8.760;2024-02-15T09:54:58;2.87;;;2.03;;
20207;SDS011;10263;48.716;8.760;2024-02-15T09:57:26;2.17;;;1.97;;
20207;SDS011;10263;48.716;8.760;2024-02-15T09:59:54;3.25;;;2.08;;
20207;SDS011;10263;48.716;8.760;2024-02-15T10:02:21;2.78;;;2.17;;
20207;SDS011;10263;48.716;8.760;2024-02-15T10:04:49;3.33;;;1.98;;
20207;SDS011;10263;48.716;8.760;2024-02-15T10:07:16;3.15;;;1.65;;
20207;SDS011;10263;48.716;8.760;2024-02-15T10:09:43;3.10;;;1.92;;
20207;SDS011;10263;48.716;8.760;2024-02-15T10:12:11;2.40;;;1.85;;
20207;SDS011;10263;48.716;8.760;2024-02-15T10:14:38;2.95;;;1.85;;
20207;SDS011;10263;48.716;8.760;2024-02-15T10:17:07;2.28;;;1.70;;
20207;SDS011;10263;48.716;8.760;2024-02-15T10:19:36;3.83;;;1.85;;
20207;SDS011;10263;48.716;8.760;2024-02-15T10:22:06;3.65;;;2.00;;
20207;SDS011;10263;48.716;8.760;2024-02-15T10:24:34;4.28;;;1.77;;
20207;SDS011;10263;48.716;8.760;2024-02-15T10:27:02;1.65;;;1.52;;
20207;SDS011;10263;48.716;8.760;2024-02-15T10:29:33;2.90;;;1.80;;
20207;SDS011;10263;48.716;8.760;2024-02-15T10:32:00;5.43;;;1.90;;
20207;SDS011;10263;48.716;8.760;2024-02-15T10:34:28;2.85;;;2.00;;
20207;SDS011;10263;48.716;8.760;2024-02-15T10:36:55;3.63;;;1.67;;
20207;SDS011;10263;48.716;8.760;2024-02-15T10:39:37;2.33;;;1.67;;
20207;SDS011;10263;48.716;8.760;2024-02-15T10:42:06;2.55;;;1.70;;
20207;SDS011;10263;48.716;8.760;2024-02-15T10:44:36;2.67;;;1.92;;
20207;SDS011;10263;48.716;8.760;2024-02-15T10:47:05;3.67;;;1.98;;
20207;SDS011;10263;48.716;8.760;2024-02-15T10:49:34;2.75;;;1.70;;
20207;SDS011;10263;48.716;8.760;2024-02-15T10:52:01;1.83;;;1.48;;
20207;SDS011;10263;48.716;8.760;2024-02-15T10:54:36;4.28;;;1.83;;
20207;SDS011;10263;48.716;8.760;2024-02-15T10:57:13;3.35;;;1.85;;
20207;SDS011;10263;48.716;8.760;2024-02-15T10:59:46;4.13;;;1.63;;
20207;SDS011;10263;48.716;8.760;2024-02-15T11:02:26;3.00;;;1.73;;
20207;SDS011;10263;48.716;8.760;2024-02-15T11:04:54;2.97;;;1.60;;
20207;SDS011;10263;48.716;8.760;2024-02-15T11:07:27;2.05;;;1.23;;
20207;SDS011;10263;48.716;8.760;2024-02-15T11:09:55;4.70;;;1.40;;
20207;SDS011;10263;48.716;8.760;2024-02-15T11:12:22;1.88;;;1.20;;
20207;SDS011;10263;48.716;8.760;2024-02-15T11:14:53;1.50;;;1.33;;
20207;SDS011;10263;48.716;8.760;2024-02-15T11:23:12;2.90;;;1.50;;
20207;SDS011;10263;48.716;8.760;2024-02-15T11:25:50;1.95;;;1.40;;
20207;SDS011;10263;48.716;8.760;2024-02-15T11:28:34;2.83;;;1.85;;
20207;SDS011;10263;48.716;8.760;2024-02-15T11:31:05;3.22;;;1.63;;
20207;SDS011;10263;48.716;8.760;2024-02-15T11:33:37;2.45;;;1.33;;
20207;SDS011;10263;48.716;8.760;2024-02-15T11:36:05;2.28;;;1.30;;
20207;SDS011;10263;48.716;8.760;2024-02-15T11:38:33;2.38;;;1.50;;
20207;SDS011;10263;48.716;8.760;2024-02-15T11:41:04;2.75;;;1.50;;
20207;SDS011;10263;48.716;8.760;2024-02-15T11:43:48;2.65;;;1.40;;
20207;SDS011;10263;48.716;8.760;2024-02-15T11:46:23;3.03;;;1.45;;
20207;SDS011;10263;48.716;8.760;2024-02-15T11:48:51;2.63;;;1.23;;
20207;SDS011;10263;48.716;8.760;2024-02-15T11:51:26;2.80;;;1.27;;
20207;SDS011;10263;48.716;8.760;2024-02-15T11:54:04;1.33;;;1.23;;
20207;SDS011;10263;48.716;8.760;2024-02-15T11:56:32;1.50;;;1.33;;
20207;SDS011;10263;48.716;8.760;2024-02-15T11:59:17;3.55;;;1.85;;
20207;SDS011;10263;48.716;8.760;2024-02-15T12:01:55;2.50;;;1.85;;
20207;SDS011;10263;48.716;8.760;2024-02-15T12:04:40;3.17;;;1.55;;
20207;SDS011;10263;48.716;8.760;2024-02-15T12:07:24;2.47;;;1.58;;
20207;SDS011;10263;48.716;8.760;2024-02-15T12:10:14;3.03;;;1.60;;
20207;SDS011;10263;48.716;8.760;2024-02-15T12:12:59;2.65;;;1.35;;
20207;SDS011;10263;48.716;8.760;2024-02-15T12:15:56;2.38;;;1.55;;
20207;SDS011;10263;48.716;8.760;2024-02-15T12:18:43;1.73;;;1.42;;
20207;SDS011;10263;48.716;8.760;2024-02-15T12:21:14;2.10;;;1.48;;
20207;SDS011;10263;48.716;8.760;2024-02-15T12:23:44;1.90;;;1.42;;
20207;SDS011;10263;48.716;8.760;2024-02-15T12:26:11;2.85;;;1.23;;
20207;SDS011;10263;48.716;8.760;2024-02-15T12:28:40;1.75;;;1.30;;
20207;SDS011;10263;48.716;8.760;2024-02-15T12:31:08;1.23;;;1.13;;
20207;SDS011;10263;48.716;8.760;2024-02-15T12:33:38;2.38;;;1.27;;
20207;SDS011;10263;48.716;8.760;2024-02-15T12:36:07;1.60;;;1.17;;
20207;SDS011;10263;48.716;8.760;2024-02-15T12:38:34;1.98;;;1.30;;
20207;SDS011;10263;48.716;8.760;2024-02-15T12:41:03;2.35;;;1.38;;
20207;SDS011;10263;48.716;8.760;2024-02-15T12:43:30;1.85;;;1.30;;
20207;SDS011;10263;48.716;8.760;2024-02-15T12:45:57;2.10;;;1.58;;
20207;SDS011;10263;48.716;8.760;2024-02-15T12:48:24;2.88;;;1.27;;
20207;SDS011;10263;48.716;8.760;2024-02-15T12:50:51;1.85;;;1.40;;
20207;SDS011;10263;48.716;8.760;2024-02-15T12:53:23;3.60;;;1.73;;
20207;SDS011;10263;48.716;8.760;2024-02-15T12:55:54;2.97;;;1.67;;
20207;SDS011;10263;48.716;8.760;2024-02-15T12:58:22;2.85;;;1.30;;
20207;SDS011;10263;48.716;8.760;2024-02-15T13:00:54;3.05;;;1.48;;
20207;SDS011;10263;48.716;8.760;2024-02-15T13:03:23;5.13;;;1.65;;
20207;SDS011;10263;48.716;8.760;2024-02-15T13:05:50;2.55;;;1.60;;
20207;SDS011;10263;48.716;8.760;2024-02-15T13:08:17;2.50;;;1.58;;
20207;SDS011;10263;48.716;8.760;2024-02-15T13:10:46;2.42;;;1.48;;
20207;SDS011;10263;48.716;8.760;2024-02-15T13:13:13;1.67;;;1.40;;
20207;SDS011;10263;48.716;8.760;2024-02-15T13:15:41;2.13;;;1.60;;
20207;SDS011;10263;48.716;8.760;2024-02-15T13:18:09;3.78;;;1.65;;
20207;SDS011;10263;48.716;8.760;2024-02-15T13:20:36;2.33;;;1.48;;
20207;SDS011;10263;48.716;8.760;2024-02-15T13:23:03;2.40;;;1.55;;
20207;SDS011;10263;48.716;8.760;2024-02-15T13:25:34;2.13;;;1.50;;
20207;SDS011;10263;48.716;8.760;2024-02-15T13:28:04;5.18;;;1.60;;
20207;SDS011;10263;48.716;8.760;2024-02-15T13:30:31;3.20;;;1.40;;
20207;SDS011;10263;48.716;8.760;2024-02-15T13:32:59;4.65;;;1.70;;
20207;SDS011;10263;48.716;8.760;2024-02-15T13:35:27;2.20;;;1.50;;
20207;SDS011;10263;48.716;8.760;2024-02-15T13:37:54;2.65;;;1.48;;
20207;SDS011;10263;48.716;8.760;2024-02-15T13:40:23;2.00;;;1.50;;
20207;SDS011;10263;48.716;8.760;2024-02-15T13:42:52;2.42;;;1.63;;
20207;SDS011;10263;48.716;8.760;2024-02-15T13:45:26;2.72;;;1.70;;
20207;SDS011;10263;48.716;8.760;2024-02-15T13:47:57;3.72;;;1.80;;
20207;SDS011;10263;48.716;8.760;2024-02-15T13:50:26;4.55;;;1.88;;
20207;SDS011;10263;48.716;8.760;2024-02-15T13:52:54;3.55;;;2.00;;
20207;SDS011;10263;48.716;8.760;2024-02-15T13:55:22;3.08;;;1.85;;
20207;SDS011;10263;48.716;8.760;2024-02-15T13:57:51;2.70;;;1.90;;
20207;SDS011;10263;48.716;8.760;2024-02-15T14:00:18;4.07;;;1.55;;
20207;SDS011;10263;48.716;8.760;2024-02-15T14:03:01;2.33;;;1.50;;
20207;SDS011;10263;48.716;8.760;2024-02-15T14:05:31;3.60;;;1.77;;
20207;SDS011;10263;48.716;8.760;2024-02-15T14:08:07;2.88;;;1.65;;
20207;SDS011;10263;48.716;8.760;2024-02-15T14:10:35;2.10;;;1.50;;
20207;SDS011;10263;48.716;8.760;2024-02-15T14:13:03;1.80;;;1.60;;
20207;SDS011;10263;48.716;8.760;2024-02-15T14:15:31;1.80;;;1.60;;
20207;SDS011;10263;48.716;8.760;2024-02-15T14:18:00;5.45;;;3.50;;
20207;SDS011;10263;48.716;8.760;2024-02-15T14:20:27;6.07;;;1.83;;
20207;SDS011;10263;48.716;8.760;2024-02-15T14:26:18;2.25;;;1.52;;
20207;SDS011;10263;48.716;8.760;2024-02-15T14:28:47;2.97;;;1.60;;
20207;SDS011;10263;48.716;8.760;2024-02-15T14:35:04;4.03;;;1.90;;
20207;SDS011;10263;48.716;8.760;2024-02-15T14:37:31;6.32;;;2.22;;
20207;SDS011;10263;48.716;8.760;2024-02-15T14:39:59;5.38;;;1.63;;
20207;SDS011;10263;48.716;8.760;2024-02-15T14:42:25;3.55;;;1.92;;
20207;SDS011;10263;48.716;8.760;2024-02-15T14:44:52;3.60;;;2.10;;
20207;SDS011;10263;48.716;8.760;2024-02-15T14:47:19;2.78;;;1.80;;
20207;SDS011;10263;48.716;8.760;2024-02-15T14:49:46;2.22;;;1.42;;
20207;SDS011;10263;48.716;8.760;2024-02-15T14:52:14;3.05;;;1.90;;
20207;SDS011;10263;48.716;8.760;2024-02-15T14:54:41;3.42;;;1.55;;
20207;SDS011;10263;48.716;8.760;2024-02-15T14:57:08;2.00;;;1.40;;
20207;SDS011;10263;48.716;8.760;2024-02-15T14:59:35;2.45;;;1.77;;
20207;SDS011;10263;48.716;8.760;2024-02-15T15:02:03;3.80;;;1.60;;
20207;SDS011;10263;48.716;8.760;2024-02-15T15:04:33;1.98;;;1.48;;
20207;SDS011;10263;48.716;8.760;2024-02-15T15:07:22;1.75;;;1.52;;
20207;SDS011;10263;48.716;8.760;2024-02-15T15:10:10;4.70;;;1.95;;
20207;SDS011;10263;48.716;8.760;2024-02-15T15:12:54;3.53;;;1.92;;